Back to Top

Language: 

My Weather Underground Personal Weather Station Historical Data with Graphs...

Delerius Weather Station Historical Data
Daily Summary for January 6, 2018 Units:  Metric    English   Both
« Previous Day
Next Day »
Daily Weekly Monthly Yearly Custom
  High: Low: Average:
Temperature: 5.9 °C 1.4 °C 3.3 °C
Dew Point: 3.2 °C 0 °C 1.8 °C
Humidity: 96 % 76 % 90 %
Wind Speed: 19.3 km/h 0 km/h 6 km/h
Wind Gust: 35.4 km/h - -
Wind:- - SSE
Pressure: 1026 hPa 1000.2 hPa -
Precipitation: 1.02 mm    
Historical Graphs
 
 
Tabular Data for January 6, 2018
Time Temperature Dew Point Pressure Wind Wind Speed Wind Gust Humidity Rainfall Rate (Hourly) solar Conditions
00:04 2.2 °C 1.6 °C 1000.2 hPa NW 8 km/h 12.9 km/h 96 % 0 mm 0 W/m2
00:05 2.2 °C 1.6 °C 1000.2 hPa NW 8 km/h 12.9 km/h 96 % 0 mm 0 W/m2
00:10 2.4 °C 1.8 °C 1000.6 hPa NW 11.3 km/h 16.1 km/h 96 % 0 mm 0 W/m2
00:14 2.6 °C 2 °C 1000.6 hPa NW 11.3 km/h 14.5 km/h 96 % 0 mm 0 W/m2
00:19 2.6 °C 1.9 °C 1000.6 hPa NW 6.4 km/h 9.7 km/h 95 % 0 mm 0 W/m2
00:20 2.7 °C 2 °C 1000.2 hPa NW 4.8 km/h 8 km/h 95 % 0 mm 0 W/m2
00:25 2.7 °C 2 °C 1000.6 hPa WNW 4.8 km/h 9.7 km/h 95 % 0 mm 0 W/m2
00:28 2.7 °C 2 °C 1000.6 hPa WNW 4.8 km/h 8 km/h 95 % 0 mm 0 W/m2
00:31 2.6 °C 1.9 °C 1000.6 hPa WNW 1.6 km/h 6.4 km/h 95 % 0 mm 0 W/m2
00:33 2.6 °C 1.9 °C 1000.6 hPa Calm   4.8 km/h 95 % 0 mm 0 W/m2
00:38 2.6 °C 1.9 °C 1000.6 hPa WNW 1.6 km/h 8 km/h 95 % 0 mm 0 W/m2
00:39 2.6 °C 1.9 °C 1000.6 hPa Calm   4.8 km/h 95 % 0 mm 0 W/m2
00:44 2.6 °C 1.9 °C 1000.6 hPa Calm   1.6 km/h 95 % 0 mm 0 W/m2
00:49 2.6 °C 1.7 °C 1000.9 hPa WNW 1.6 km/h 3.2 km/h 94 % 0 mm 0 W/m2
00:54 2.6 °C 1.7 °C 1000.9 hPa Calm   3.2 km/h 94 % 0 mm 0 W/m2
01:03 2.6 °C 1.9 °C 1000.9 hPa NW 3.2 km/h 8 km/h 95 % 0 mm 0 W/m2
01:07 2.7 °C 2 °C 1000.9 hPa NW 1.6 km/h 8 km/h 95 % 0 mm 0 W/m2
01:12 2.7 °C 2 °C 1001.2 hPa NW 3.2 km/h 8 km/h 95 % 0 mm 0 W/m2
01:13 2.7 °C 2 °C 1001.2 hPa NW 3.2 km/h 8 km/h 95 % 0 mm 0 W/m2
01:18 2.8 °C 1.9 °C 1001.2 hPa WNW 3.2 km/h 8 km/h 94 % 0 mm 0 W/m2
01:21 2.8 °C 1.9 °C 1001.2 hPa WNW 3.2 km/h 6.4 km/h 94 % 0 mm 0 W/m2
01:26 2.8 °C 1.9 °C 1001.2 hPa Calm   4.8 km/h 94 % 0 mm 0 W/m2
01:31 2.8 °C 1.9 °C 1001.2 hPa Calm     94 % 0 mm 0 W/m2
01:36 2.8 °C 1.9 °C 1001.2 hPa WNW 1.6 km/h 4.8 km/h 94 % 0 mm 0 W/m2
01:41 2.8 °C 1.9 °C 1001.6 hPa Calm   3.2 km/h 94 % 0 mm 0 W/m2
01:42 2.8 °C 1.9 °C 1001.6 hPa Calm   3.2 km/h 94 % 0 mm 0 W/m2
01:47 2.8 °C 1.9 °C 1001.6 hPa WNW 1.6 km/h 3.2 km/h 94 % 0 mm 0 W/m2
01:49 2.8 °C 1.9 °C 1001.6 hPa Calm   1.6 km/h 94 % 0 mm 0 W/m2
01:54 2.8 °C 1.9 °C 1001.6 hPa Calm     94 % 0 mm 0 W/m2
01:59 2.8 °C 1.9 °C 1001.6 hPa Calm   1.6 km/h 94 % 0 mm 0 W/m2
02:04 2.8 °C 1.9 °C 1001.9 hPa Calm   1.6 km/h 94 % 0 mm 0 W/m2
02:09 2.9 °C 2.1 °C 1001.9 hPa WNW 4.8 km/h 8 km/h 94 % 0 mm 0 W/m2
02:10 2.9 °C 2.1 °C 1001.9 hPa WNW 4.8 km/h 8 km/h 94 % 0 mm 0 W/m2
02:15 2.9 °C 2.1 °C 1001.9 hPa Calm   1.6 km/h 94 % 0 mm 0 W/m2
02:20 3 °C 2.1 °C 1001.9 hPa WNW 1.6 km/h 4.8 km/h 94 % 0 mm 0 W/m2
02:21 3 °C 2.1 °C 1001.9 hPa WNW 1.6 km/h 4.8 km/h 94 % 0 mm 0 W/m2
02:26 3.1 °C 2.2 °C 1001.9 hPa Calm     94 % 0 mm 0 W/m2
02:31 3.1 °C 2.2 °C 1002.3 hPa Calm     94 % 0 mm 0 W/m2
02:36 3.1 °C 2.2 °C 1002.3 hPa Calm   1.6 km/h 94 % 0 mm 0 W/m2
02:39 3.1 °C 2.2 °C 1002.3 hPa Calm   3.2 km/h 94 % 0 mm 0 W/m2
02:45 3.2 °C 2.3 °C 1002.3 hPa Calm     94 % 0 mm 0 W/m2
02:50 3.1 °C 2.2 °C 1002.6 hPa Calm     94 % 0 mm 0 W/m2
02:55 3.1 °C 2.2 °C 1002.3 hPa Calm   3.2 km/h 94 % 0 mm 0 W/m2
03:02 3.2 °C 2.3 °C 1002.6 hPa Calm   1.6 km/h 94 % 0 mm 0 W/m2
03:04 3.2 °C 2.3 °C 1002.6 hPa Calm   1.6 km/h 94 % 0 mm 0 W/m2
03:09 3.3 °C 2.4 °C 1002.6 hPa NNW 4.8 km/h 9.7 km/h 94 % 0 mm 0 W/m2
03:13 3.4 °C 2.5 °C 1002.9 hPa NNW 1.6 km/h 3.2 km/h 94 % 0 mm 0 W/m2
03:18 3.5 °C 2.6 °C 1002.6 hPa NW 3.2 km/h 9.7 km/h 94 % 0 mm 0 W/m2
03:27 3.6 °C 2.9 °C 1002.9 hPa NE 1.6 km/h 11.3 km/h 95 % 0 mm 0 W/m2
03:31 3.7 °C 3 °C 1002.9 hPa NNE 1.6 km/h 8 km/h 95 % 0 mm 0 W/m2
03:34 3.7 °C 3 °C 1002.9 hPa North 6.4 km/h 11.3 km/h 95 % 0 mm 0 W/m2
03:39 3.7 °C 2.8 °C 1003.3 hPa North 3.2 km/h 9.7 km/h 94 % 0 mm 0 W/m2
03:42 3.7 °C 2.8 °C 1003.3 hPa North 1.6 km/h 9.7 km/h 94 % 0 mm 0 W/m2
03:47 3.7 °C 2.8 °C 1003.3 hPa North 1.6 km/h 6.4 km/h 94 % 0 mm 0 W/m2
03:50 3.7 °C 2.8 °C 1003.3 hPa North 1.6 km/h 11.3 km/h 94 % 0 mm 0 W/m2
03:52 3.7 °C 2.8 °C 1003.3 hPa NNW 3.2 km/h 11.3 km/h 94 % 0 mm 0 W/m2
03:57 3.7 °C 2.8 °C 1003.3 hPa North 4.8 km/h 9.7 km/h 94 % 0 mm 0 W/m2
04:00 3.7 °C 2.8 °C 1003.3 hPa North 6.4 km/h 12.9 km/h 94 % 0 mm 0 W/m2
04:05 3.7 °C 2.8 °C 1003.6 hPa North 6.4 km/h 11.3 km/h 94 % 0 mm 0 W/m2
04:10 3.7 °C 3 °C 1003.6 hPa North 1.6 km/h 6.4 km/h 95 % 0 mm 0 W/m2
04:14 3.7 °C 3 °C 1003.6 hPa North 6.4 km/h 9.7 km/h 95 % 0 mm 0 W/m2
04:19 3.7 °C 3 °C 1003.9 hPa NNW 3.2 km/h 9.7 km/h 95 % 0 mm 0 W/m2
04:23 3.8 °C 3.1 °C 1003.9 hPa NNW 1.6 km/h 9.7 km/h 95 % 0 mm 0 W/m2
04:28 3.8 °C 3.1 °C 1003.9 hPa North 4.8 km/h 12.9 km/h 95 % 0 mm 0 W/m2
04:29 3.8 °C 3.1 °C 1003.9 hPa NNW 4.8 km/h 12.9 km/h 95 % 0 mm 0 W/m2
04:34 3.8 °C 3.1 °C 1003.9 hPa North 3.2 km/h 8 km/h 95 % 0 mm 0 W/m2
04:36 3.8 °C 3.1 °C 1003.9 hPa North 3.2 km/h 8 km/h 95 % 0 mm 0 W/m2
04:41 3.8 °C 3.1 °C 1004.3 hPa North 1.6 km/h 6.4 km/h 95 % 0 mm 0 W/m2
04:46 3.8 °C 3.1 °C 1004.3 hPa NNE 4.8 km/h 9.7 km/h 95 % 0 mm 0 W/m2
04:51 3.9 °C 3.2 °C 1004.6 hPa North 1.6 km/h 11.3 km/h 95 % 0 mm 0 W/m2
04:56 3.9 °C 3.2 °C 1004.6 hPa ENE 4.8 km/h 9.7 km/h 95 % 0 mm 0 W/m2
04:57 3.9 °C 3.2 °C 1004.6 hPa ENE 6.4 km/h 11.3 km/h 95 % 0 mm 0 W/m2
05:02 3.9 °C 3.2 °C 1004.6 hPa North 11.3 km/h 19.3 km/h 95 % 0 mm 0 W/m2
05:04 3.9 °C 3.2 °C 1004.6 hPa NNE 9.7 km/h 14.5 km/h 95 % 0 mm 0 W/m2
05:09 3.9 °C 3.2 °C 1005 hPa NNE 4.8 km/h 11.3 km/h 95 % 0 mm 0 W/m2
05:12 3.9 °C 3.2 °C 1005 hPa ENE 1.6 km/h 8 km/h 95 % 0 mm 0 W/m2
05:13 3.9 °C 3.2 °C 1005 hPa Calm   6.4 km/h 95 % 0 mm 0 W/m2
05:19 3.9 °C 3.2 °C 1005.3 hPa NE 4.8 km/h 11.3 km/h 95 % 0 mm 0 W/m2
05:24 3.9 °C 3.2 °C 1005.3 hPa ENE 4.8 km/h 12.9 km/h 95 % 0 mm 0 W/m2
05:25 3.9 °C 3.2 °C 1005.3 hPa NE 3.2 km/h 9.7 km/h 95 % 0 mm 0 W/m2
05:30 3.9 °C 3.2 °C 1005.6 hPa NNE 8 km/h 14.5 km/h 95 % 0 mm 0 W/m2
05:32 3.9 °C 3.2 °C 1005.3 hPa NE 6.4 km/h 14.5 km/h 95 % 0 mm 0 W/m2
05:37 3.9 °C 3.2 °C 1005.6 hPa North 4.8 km/h 11.3 km/h 95 % 0 mm 0 W/m2
05:42 3.9 °C 3.2 °C 1005.6 hPa NE 4.8 km/h 11.3 km/h 95 % 0 mm 0 W/m2
05:47 3.9 °C 3.2 °C 1005.6 hPa NNE 8 km/h 12.9 km/h 95 % 0 mm 0 W/m2
05:52 3.9 °C 3.2 °C 1006 hPa NNE 11.3 km/h 20.9 km/h 95 % 0 mm 0 W/m2
05:58 3.9 °C 3.2 °C 1006.3 hPa NE 3.2 km/h 9.7 km/h 95 % 0 mm 0 W/m2
06:00 3.9 °C 3.2 °C 1006.3 hPa ENE 1.6 km/h 8 km/h 95 % 0 mm 0 W/m2
06:05 3.9 °C 3.2 °C 1006.7 hPa NE 9.7 km/h 16.1 km/h 95 % 0 mm 0 W/m2
06:10 3.9 °C 3.2 °C 1006.7 hPa NE 8 km/h 19.3 km/h 95 % 0 mm 0 W/m2
06:16 3.8 °C 3.1 °C 1006.7 hPa ENE 17.7 km/h 29 km/h 95 % 0.25 mm 0 W/m2
06:22 3.5 °C 2.6 °C 1006.7 hPa ENE 11.3 km/h 22.5 km/h 94 % 0.51 mm 0 W/m2
06:27 3.4 °C 2.5 °C 1007 hPa ENE 12.9 km/h 25.7 km/h 94 % 0.51 mm 0 W/m2
06:32 3.4 °C 2.5 °C 1007 hPa ENE 12.9 km/h 22.5 km/h 94 % 0.76 mm 0 W/m2
06:34 3.4 °C 2.5 °C 1007 hPa ENE 12.9 km/h 22.5 km/h 94 % 0.76 mm 0 W/m2
06:39 3.5 °C 2.6 °C 1007.3 hPa ENE 9.7 km/h 14.5 km/h 94 % 0.76 mm 0 W/m2
06:45 3.5 °C 2.6 °C 1007.3 hPa ENE 6.4 km/h 11.3 km/h 94 % 1.02 mm 0 W/m2
06:52 3.5 °C 2.8 °C 1007.3 hPa NNE 4.8 km/h 8 km/h 95 % 1.02 mm 0 W/m2
06:57 3.5 °C 2.8 °C 1007.7 hPa North 1.6 km/h 4.8 km/h 95 % 1.02 mm 0 W/m2
07:01 3.5 °C 2.8 °C 1007.7 hPa NNE 3.2 km/h 11.3 km/h 95 % 1.02 mm 0 W/m2
07:06 3.6 °C 2.9 °C 1007.7 hPa NNE 3.2 km/h 11.3 km/h 95 % 1.02 mm 0 W/m2
07:12 3.7 °C 3 °C 1008 hPa North 6.4 km/h 12.9 km/h 95 % 1.02 mm 0 W/m2
07:14 3.7 °C 3 °C 1008 hPa North 6.4 km/h 11.3 km/h 95 % 0.76 mm 0 W/m2
07:16 3.7 °C 3 °C 1008 hPa NNE 4.8 km/h 11.3 km/h 95 % 0.51 mm 0 W/m2
07:21 3.7 °C 3 °C 1008 hPa NNW 1.6 km/h 3.2 km/h 95 % 0.51 mm 0 W/m2
07:26 3.7 °C 3 °C 1008.4 hPa North 1.6 km/h 9.7 km/h 95 % 0.51 mm 0 W/m2
07:31 3.7 °C 3 °C 1008.4 hPa North 8 km/h 12.9 km/h 95 % 0.25 mm 0 W/m2
07:36 3.7 °C 3 °C 1008.7 hPa NNW 4.8 km/h 8 km/h 95 % 0.25 mm 0 W/m2
07:41 3.7 °C 3 °C 1008.7 hPa North 6.4 km/h 11.3 km/h 95 % 0.25 mm 0 W/m2
07:46 3.6 °C 2.9 °C 1009 hPa North 3.2 km/h 8 km/h 95 % 0 mm 0 W/m2
07:51 3.6 °C 2.9 °C 1009 hPa NNW 3.2 km/h 12.9 km/h 95 % 0 mm 0 W/m2
07:56 3.5 °C 2.8 °C 1009 hPa North 8 km/h 14.5 km/h 95 % 0 mm 0 W/m2
08:01 3.5 °C 2.8 °C 1009.4 hPa North 9.7 km/h 14.5 km/h 95 % 0 mm 0 W/m2
08:06 3.4 °C 2.7 °C 1009.4 hPa NNE 9.7 km/h 17.7 km/h 95 % 0 mm 0 W/m2
08:11 3.4 °C 2.7 °C 1009.4 hPa NNE 9.7 km/h 14.5 km/h 95 % 0 mm 0 W/m2
08:12 3.4 °C 2.5 °C 1009.4 hPa NNE 6.4 km/h 12.9 km/h 94 % 0 mm 0 W/m2
08:17 3.3 °C 2.4 °C 1009.7 hPa NNE 8 km/h 14.5 km/h 94 % 0 mm 0 W/m2
08:22 3.3 °C 2.4 °C 1009.7 hPa NNE 4.8 km/h 14.5 km/h 94 % 0 mm 0 W/m2
08:27 3.3 °C 2.4 °C 1010 hPa North 8 km/h 14.5 km/h 94 % 0 mm 5 W/m2
08:28 3.3 °C 2.4 °C 1010 hPa NNW 6.4 km/h 14.5 km/h 94 % 0 mm 5 W/m2
08:33 3.2 °C 2.3 °C 1010 hPa NNE 3.2 km/h 9.7 km/h 94 % 0 mm 5 W/m2
08:36 3.2 °C 2.3 °C 1010 hPa North 6.4 km/h 12.9 km/h 94 % 0 mm 5 W/m2
08:41 3.2 °C 2.3 °C 1010.4 hPa North 6.4 km/h 14.5 km/h 94 % 0 mm 7 W/m2
08:46 3.1 °C 2.2 °C 1010.4 hPa NNW 6.4 km/h 11.3 km/h 94 % 0 mm 7 W/m2
08:48 3.1 °C 2.2 °C 1010.4 hPa NNW 8 km/h 12.9 km/h 94 % 0 mm 5 W/m2
08:54 3.1 °C 2.2 °C 1010.7 hPa NNW 6.4 km/h 12.9 km/h 94 % 0 mm 7 W/m2
08:59 3.1 °C 2.2 °C 1010.7 hPa North 8 km/h 12.9 km/h 94 % 0 mm 11 W/m2
09:01 3.1 °C 2.2 °C 1011.1 hPa North 4.8 km/h 11.3 km/h 94 % 0 mm 12 W/m2
09:06 3 °C 2.1 °C 1011.1 hPa North 8 km/h 14.5 km/h 94 % 0 mm 18 W/m2
09:11 3 °C 2.1 °C 1011.1 hPa North 4.8 km/h 19.3 km/h 94 % 0 mm 18 W/m2
09:16 2.9 °C 1.9 °C 1011.1 hPa North 8 km/h 12.9 km/h 93 % 0 mm 23 W/m2
09:21 2.9 °C 1.9 °C 1011.1 hPa North 8 km/h 16.1 km/h 93 % 0 mm 28 W/m2
09:26 2.9 °C 1.9 °C 1011.4 hPa NNE 6.4 km/h 14.5 km/h 93 % 0 mm 28 W/m2
09:28 2.9 °C 1.9 °C 1011.4 hPa North 8 km/h 12.9 km/h 93 % 0 mm 30 W/m2
09:33 2.9 °C 1.9 °C 1011.7 hPa North 4.8 km/h 11.3 km/h 93 % 0 mm 26 W/m2
09:38 2.9 °C 1.9 °C 1011.7 hPa NE 4.8 km/h 19.3 km/h 93 % 0 mm 19 W/m2
09:43 3 °C 2 °C 1012.1 hPa NNE 3.2 km/h 8 km/h 93 % 0 mm 19 W/m2
09:48 3.1 °C 2.1 °C 1012.1 hPa ENE 3.2 km/h 6.4 km/h 93 % 0 mm 23 W/m2
09:54 3.1 °C 2.1 °C 1012.1 hPa NE 6.4 km/h 17.7 km/h 93 % 0 mm 32 W/m2
09:59 3.2 °C 2.2 °C 1012.4 hPa NE 4.8 km/h 12.9 km/h 93 % 0 mm 35 W/m2
10:04 3.3 °C 2.3 °C 1012.4 hPa NNE 4.8 km/h 9.7 km/h 93 % 0 mm 74 W/m2
10:09 3.4 °C 2.4 °C 1012.4 hPa North 8 km/h 20.9 km/h 93 % 0 mm 42 W/m2
10:12 3.4 °C 2.4 °C 1012.8 hPa NNE 6.4 km/h 16.1 km/h 93 % 0 mm 40 W/m2
10:17 3.5 °C 2.5 °C 1012.8 hPa NNE 12.9 km/h 22.5 km/h 93 % 0 mm 86 W/m2
10:22 3.6 °C 2.6 °C 1013.1 hPa North 6.4 km/h 16.1 km/h 93 % 0 mm 74 W/m2
10:27 3.6 °C 2.6 °C 1013.1 hPa NE 9.7 km/h 20.9 km/h 93 % 0 mm 56 W/m2
10:32 3.7 °C 2.7 °C 1013.1 hPa NNE 3.2 km/h 11.3 km/h 93 % 0 mm 40 W/m2
10:34 3.7 °C 2.7 °C 1013.1 hPa NE 9.7 km/h 24.1 km/h 93 % 0 mm 46 W/m2
10:39 3.7 °C 2.7 °C 1013.1 hPa NE 6.4 km/h 17.7 km/h 93 % 0 mm 79 W/m2
10:44 3.7 °C 2.7 °C 1013.4 hPa NE 9.7 km/h 16.1 km/h 93 % 0 mm 58 W/m2
10:49 3.8 °C 2.8 °C 1013.4 hPa NE 11.3 km/h 22.5 km/h 93 % 0 mm 83 W/m2
10:54 3.9 °C 2.9 °C 1013.4 hPa NE 6.4 km/h 16.1 km/h 93 % 0 mm 83 W/m2
10:59 4 °C 2.8 °C 1013.4 hPa NE 4.8 km/h 14.5 km/h 92 % 0 mm 74 W/m2
11:00 4 °C 2.9 °C 1013.4 hPa ENE 6.4 km/h 14.5 km/h 93 % 0 mm 76 W/m2
11:05 4.1 °C 2.9 °C 1013.8 hPa ENE 12.9 km/h 25.7 km/h 92 % 0 mm 56 W/m2
11:10 4.1 °C 2.9 °C 1013.8 hPa ENE 19.3 km/h 35.4 km/h 92 % 0 mm 62 W/m2
11:15 4.1 °C 2.8 °C 1013.4 hPa ENE 9.7 km/h 20.9 km/h 91 % 0 mm 65 W/m2
11:20 4.1 °C 2.8 °C 1013.8 hPa NE 16.1 km/h 25.7 km/h 91 % 0 mm 70 W/m2
11:26 4.2 °C 2.7 °C 1013.8 hPa NE 11.3 km/h 19.3 km/h 90 % 0 mm 98 W/m2
11:31 4.3 °C 2.8 °C 1013.8 hPa ENE 1.6 km/h 12.9 km/h 90 % 0 mm 183 W/m2
11:36 4.5 °C 3 °C 1013.8 hPa North 11.3 km/h 20.9 km/h 90 % 0 mm 267 W/m2
11:40 4.6 °C 3.1 °C 1014.1 hPa NNE 11.3 km/h 17.7 km/h 90 % 0 mm 262 W/m2
11:45 4.7 °C 3.2 °C 1014.1 hPa North 8 km/h 17.7 km/h 90 % 0 mm 120 W/m2
11:50 4.8 °C 3.2 °C 1014.1 hPa NNE 8 km/h 17.7 km/h 89 % 0 mm 90 W/m2
11:55 4.8 °C 3.2 °C 1014.1 hPa NNE 11.3 km/h 20.9 km/h 89 % 0 mm 81 W/m2
12:00 4.8 °C 3.2 °C 1014.4 hPa NNE 6.4 km/h 16.1 km/h 89 % 0 mm 160 W/m2
12:05 4.7 °C 3.1 °C 1014.4 hPa NNE 6.4 km/h 14.5 km/h 89 % 0 mm 72 W/m2
12:10 4.8 °C 3.2 °C 1014.4 hPa North 3.2 km/h 11.3 km/h 89 % 0 mm 98 W/m2
12:11 4.8 °C 3.2 °C 1014.4 hPa North 4.8 km/h 11.3 km/h 89 % 0 mm 98 W/m2
12:16 4.8 °C 3.2 °C 1014.8 hPa North 4.8 km/h 11.3 km/h 89 % 0 mm 62 W/m2
12:17 4.7 °C 3.1 °C 1014.8 hPa North 4.8 km/h 14.5 km/h 89 % 0 mm 62 W/m2
12:22 4.7 °C 3.1 °C 1014.8 hPa North 4.8 km/h 12.9 km/h 89 % 0 mm 54 W/m2
12:24 4.7 °C 3.1 °C 1014.8 hPa NNE 3.2 km/h 12.9 km/h 89 % 0 mm 65 W/m2
12:29 4.7 °C 3.1 °C 1014.8 hPa North 4.8 km/h 16.1 km/h 89 % 0 mm 116 W/m2
12:34 4.7 °C 3.1 °C 1014.8 hPa NE 3.2 km/h 11.3 km/h 89 % 0 mm 107 W/m2
12:40 4.7 °C 2.9 °C 1014.8 hPa NE 8 km/h 17.7 km/h 88 % 0 mm 98 W/m2
12:45 4.7 °C 2.7 °C 1015.1 hPa ENE 3.2 km/h 11.3 km/h 87 % 0 mm 95 W/m2
12:50 4.7 °C 2.6 °C 1015.1 hPa NE 9.7 km/h 17.7 km/h 86 % 0 mm 211 W/m2
12:55 4.9 °C 2.8 °C 1015.1 hPa NE 11.3 km/h 17.7 km/h 86 % 0 mm 204 W/m2
13:01 5 °C 2.7 °C 1015.1 hPa NE 8 km/h 17.7 km/h 85 % 0 mm 200 W/m2
13:02 5 °C 2.5 °C 1015.1 hPa NE 9.7 km/h 17.7 km/h 84 % 0 mm 221 W/m2
13:07 5.2 °C 2.7 °C 1015.1 hPa NE 4.8 km/h 11.3 km/h 84 % 0 mm 211 W/m2
13:12 5.3 °C 2.7 °C 1015.1 hPa NNE 12.9 km/h 24.1 km/h 83 % 0 mm 105 W/m2
13:17 5.4 °C 2.7 °C 1015.1 hPa NNE 9.7 km/h 16.1 km/h 83 % 0 mm 204 W/m2
13:21 5.4 °C 2.7 °C 1015.5 hPa NNE 11.3 km/h 20.9 km/h 83 % 0 mm 204 W/m2
13:27 5.6 °C 2.8 °C 1015.5 hPa NE 9.7 km/h 17.7 km/h 82 % 0 mm 192 W/m2
13:29 5.6 °C 2.8 °C 1015.5 hPa NNE 8 km/h 17.7 km/h 82 % 0 mm 192 W/m2
13:34 5.7 °C 2.7 °C 1015.5 hPa NE 11.3 km/h 20.9 km/h 81 % 0 mm 192 W/m2
13:39 5.8 °C 2.6 °C 1015.5 hPa NE 11.3 km/h 19.3 km/h 80 % 0 mm 185 W/m2
13:45 5.8 °C 2.4 °C 1015.8 hPa NE 9.7 km/h 24.1 km/h 79 % 0 mm 183 W/m2
13:48 5.8 °C 2.4 °C 1015.5 hPa NE 11.3 km/h 19.3 km/h 79 % 0 mm 174 W/m2
13:54 5.8 °C 2.1 °C 1015.8 hPa NE 17.7 km/h 30.6 km/h 77 % 0 mm 186 W/m2
13:57 5.9 °C 2.2 °C 1015.8 hPa NE 14.5 km/h 24.1 km/h 77 % 0 mm 102 W/m2
14:03 5.9 °C 2.2 °C 1015.8 hPa NE 12.9 km/h 24.1 km/h 77 % 0 mm 181 W/m2
14:05 5.9 °C 2.2 °C 1015.8 hPa NE 14.5 km/h 29 km/h 77 % 0 mm 185 W/m2
14:10 5.8 °C 1.9 °C 1016.1 hPa NE 14.5 km/h 25.7 km/h 76 % 0 mm 88 W/m2
14:15 5.7 °C 1.8 °C 1016.1 hPa NE 14.5 km/h 24.1 km/h 76 % 0 mm 104 W/m2
14:18 5.6 °C 1.7 °C 1016.1 hPa NE 14.5 km/h 25.7 km/h 76 % 0 mm 142 W/m2
14:24 5.6 °C 1.9 °C 1016.1 hPa NE 12.9 km/h 29 km/h 77 % 0 mm 132 W/m2
14:29 5.6 °C 1.9 °C 1016.5 hPa NE 11.3 km/h 22.5 km/h 77 % 0 mm 120 W/m2
14:34 5.6 °C 1.9 °C 1016.5 hPa NE 9.7 km/h 22.5 km/h 77 % 0 mm 98 W/m2
14:39 5.5 °C 1.9 °C 1016.5 hPa NE 3.2 km/h 14.5 km/h 78 % 0 mm 54 W/m2
14:44 5.4 °C 1.9 °C 1016.8 hPa NNE 3.2 km/h 9.7 km/h 78 % 0 mm 47 W/m2
14:45 5.5 °C 1.9 °C 1016.8 hPa NNE 3.2 km/h 9.7 km/h 78 % 0 mm 49 W/m2
14:50 5.4 °C 1.9 °C 1016.8 hPa North 11.3 km/h 17.7 km/h 78 % 0 mm 54 W/m2
14:55 5.4 °C 2.1 °C 1017.2 hPa NNE 9.7 km/h 25.7 km/h 79 % 0 mm 16 W/m2
15:00 5.3 °C 2.1 °C 1017.2 hPa NE 11.3 km/h 25.7 km/h 80 % 0 mm 21 W/m2
15:01 5.2 °C 2.1 °C 1017.2 hPa NE 16.1 km/h 25.7 km/h 80 % 0 mm 26 W/m2
15:06 4.9 °C 1.7 °C 1017.2 hPa NE 14.5 km/h 24.1 km/h 80 % 0 mm 32 W/m2
15:11 4.7 °C 1.9 °C 1017.5 hPa NE 9.7 km/h 16.1 km/h 82 % 0 mm 30 W/m2
15:16 4.6 °C 1.8 °C 1017.5 hPa NNE 6.4 km/h 12.9 km/h 82 % 0 mm 19 W/m2
15:17 4.6 °C 1.8 °C 1017.8 hPa NNE 4.8 km/h 12.9 km/h 82 % 0 mm 19 W/m2
15:20 4.5 °C 1.7 °C 1017.8 hPa NE 4.8 km/h 11.3 km/h 82 % 0 mm 18 W/m2
15:25 4.3 °C 1.7 °C 1017.8 hPa NNE 4.8 km/h 14.5 km/h 83 % 0 mm 18 W/m2
15:30 4.2 °C 1.6 °C 1017.8 hPa ENE 3.2 km/h 11.3 km/h 83 % 0 mm 16 W/m2
15:35 4.2 °C 1.6 °C 1017.8 hPa NE 3.2 km/h 9.7 km/h 83 % 0 mm 14 W/m2
15:41 4.1 °C 1.4 °C 1018.2 hPa ENE 3.2 km/h 9.7 km/h 83 % 0 mm 12 W/m2
15:46 3.9 °C 1.3 °C 1018.2 hPa NE 1.6 km/h 9.7 km/h 83 % 0 mm 11 W/m2
15:51 3.9 °C 1.4 °C 1018.2 hPa Calm   3.2 km/h 84 % 0 mm 9 W/m2
15:56 3.8 °C 1.3 °C 1018.2 hPa NNE 1.6 km/h 9.7 km/h 84 % 0 mm 7 W/m2
16:01 3.7 °C 1.2 °C 1018.2 hPa NNE 1.6 km/h 8 km/h 84 % 0 mm 7 W/m2
16:06 3.7 °C 1.2 °C 1018.2 hPa NE 1.6 km/h 8 km/h 84 % 0 mm 5 W/m2
16:11 3.7 °C 1.4 °C 1018.5 hPa NNW 3.2 km/h 8 km/h 85 % 0 mm 0 W/m2
16:13 3.6 °C 1.3 °C 1018.5 hPa North 1.6 km/h 8 km/h 85 % 0 mm 0 W/m2
16:18 3.6 °C 1.3 °C 1018.5 hPa NE 1.6 km/h 8 km/h 85 % 0 mm 0 W/m2
16:19 3.6 °C 1.3 °C 1018.5 hPa NNE 3.2 km/h 17.7 km/h 85 % 0 mm 0 W/m2
16:24 3.5 °C 1.4 °C 1018.5 hPa North 3.2 km/h 8 km/h 86 % 0 mm 0 W/m2
16:28 3.5 °C 1.4 °C 1018.5 hPa Calm   3.2 km/h 86 % 0 mm 0 W/m2
16:33 3.4 °C 1.3 °C 1018.8 hPa NNE 1.6 km/h 8 km/h 86 % 0 mm 0 W/m2
16:38 3.4 °C 1.3 °C 1018.8 hPa North 4.8 km/h 12.9 km/h 86 % 0 mm 0 W/m2
16:43 3.4 °C 1.3 °C 1018.8 hPa North 8 km/h 14.5 km/h 86 % 0 mm 0 W/m2
16:45 3.4 °C 1.3 °C 1018.8 hPa NNE 6.4 km/h 14.5 km/h 86 % 0 mm 0 W/m2
16:50 3.4 °C 1.3 °C 1018.8 hPa NE 3.2 km/h 11.3 km/h 86 % 0 mm 0 W/m2
16:55 3.3 °C 1.2 °C 1019.2 hPa North 1.6 km/h 8 km/h 86 % 0 mm 0 W/m2
17:00 3.3 °C 1.2 °C 1019.2 hPa NNE 9.7 km/h 12.9 km/h 86 % 0 mm 0 W/m2
17:05 3.3 °C 1.2 °C 1019.2 hPa North 6.4 km/h 12.9 km/h 86 % 0 mm 0 W/m2
17:11 3.2 °C 1.1 °C 1019.5 hPa North 3.2 km/h 9.7 km/h 86 % 0 mm 0 W/m2
17:13 3.2 °C 1.1 °C 1019.5 hPa North 4.8 km/h 11.3 km/h 86 % 0 mm 0 W/m2
17:14 3.2 °C 1.1 °C 1019.5 hPa North 6.4 km/h 12.9 km/h 86 % 0 mm 0 W/m2
17:19 3.1 °C 1 °C 1019.5 hPa North 1.6 km/h 8 km/h 86 % 0 mm 0 W/m2
17:24 3.1 °C 1.2 °C 1019.9 hPa North 4.8 km/h 14.5 km/h 87 % 0 mm 0 W/m2
17:29 3.1 °C 1.2 °C 1019.9 hPa North 4.8 km/h 11.3 km/h 87 % 0 mm 0 W/m2
17:33 3.1 °C 1.2 °C 1019.9 hPa North 1.6 km/h 9.7 km/h 87 % 0 mm 0 W/m2
17:38 3 °C 1.1 °C 1020.2 hPa NNW 6.4 km/h 11.3 km/h 87 % 0 mm 0 W/m2
17:40 2.9 °C 0.9 °C 1020.2 hPa NNW 4.8 km/h 11.3 km/h 87 % 0 mm 0 W/m2
17:45 2.8 °C 0.8 °C 1020.2 hPa NNW 3.2 km/h 11.3 km/h 87 % 0 mm 0 W/m2
17:46 2.8 °C 0.8 °C 1020.2 hPa NNW 3.2 km/h 11.3 km/h 87 % 0 mm 0 W/m2
17:49 2.8 °C 0.8 °C 1020.5 hPa NNW 8 km/h 17.7 km/h 87 % 0 mm 0 W/m2
17:51 2.8 °C 0.8 °C 1020.5 hPa NNW 8 km/h 17.7 km/h 87 % 0 mm 0 W/m2
18:01 2.7 °C 0.8 °C 1020.9 hPa North 4.8 km/h 9.7 km/h 87 % 0 mm 0 W/m2
18:04 2.7 °C 0.9 °C 1020.9 hPa North 6.4 km/h 12.9 km/h 88 % 0 mm 0 W/m2
18:09 2.6 °C 0.8 °C 1020.9 hPa North 6.4 km/h 12.9 km/h 88 % 0 mm 0 W/m2
18:15 2.6 °C 0.8 °C 1020.9 hPa North 8 km/h 16.1 km/h 88 % 0 mm 0 W/m2
18:19 2.6 °C 0.8 °C 1021.2 hPa North 8 km/h 12.9 km/h 88 % 0 mm 0 W/m2
18:24 2.6 °C 0.8 °C 1021.2 hPa North 8 km/h 14.5 km/h 88 % 0 mm 0 W/m2
18:29 2.5 °C 0.7 °C 1021.2 hPa NNW 6.4 km/h 11.3 km/h 88 % 0 mm 0 W/m2
18:34 2.4 °C 0.6 °C 1021.6 hPa NNW 8 km/h 12.9 km/h 88 % 0 mm 0 W/m2
18:39 2.3 °C 0.5 °C 1021.6 hPa North 8 km/h 12.9 km/h 88 % 0 mm 0 W/m2
18:43 2.3 °C 0.5 °C 1021.6 hPa North 9.7 km/h 16.1 km/h 88 % 0 mm 0 W/m2
18:48 2.3 °C 0.5 °C 1021.9 hPa North 4.8 km/h 14.5 km/h 88 % 0 mm 0 W/m2
18:54 2.4 °C 0.6 °C 1021.9 hPa NNE 3.2 km/h 9.7 km/h 88 % 0 mm 0 W/m2
18:59 2.3 °C 0.5 °C 1021.9 hPa North 3.2 km/h 11.3 km/h 88 % 0 mm 0 W/m2
19:01 2.3 °C 0.5 °C 1022.2 hPa NNE 1.6 km/h 8 km/h 88 % 0 mm 0 W/m2
19:06 2.3 °C 0.5 °C 1022.2 hPa North 4.8 km/h 9.7 km/h 88 % 0 mm 0 W/m2
19:08 2.3 °C 0.5 °C 1022.2 hPa NNE 4.8 km/h 12.9 km/h 88 % 0 mm 0 W/m2
19:13 2.3 °C 0.5 °C 1022.2 hPa North 6.4 km/h 14.5 km/h 88 % 0 mm 0 W/m2
19:18 2.3 °C 0.5 °C 1021.9 hPa North 6.4 km/h 11.3 km/h 88 % 0 mm 0 W/m2
19:23 2.3 °C 0.5 °C 1022.2 hPa NNE 8 km/h 11.3 km/h 88 % 0 mm 0 W/m2
19:26 2.3 °C 0.5 °C 1022.2 hPa North 4.8 km/h 11.3 km/h 88 % 0 mm 0 W/m2
19:31 2.2 °C 0.4 °C 1022.2 hPa North 8 km/h 17.7 km/h 88 % 0 mm 0 W/m2
19:36 2.2 °C 0.4 °C 1022.2 hPa North 8 km/h 14.5 km/h 88 % 0 mm 0 W/m2
19:41 2.2 °C 0.4 °C 1022.6 hPa NNW 4.8 km/h 9.7 km/h 88 % 0 mm 0 W/m2
19:42 2.2 °C 0.4 °C 1022.6 hPa NNW 4.8 km/h 9.7 km/h 88 % 0 mm 0 W/m2
19:47 2.1 °C 0.3 °C 1022.6 hPa North 8 km/h 12.9 km/h 88 % 0 mm 0 W/m2
19:52 2.1 °C 0.5 °C 1022.6 hPa North 4.8 km/h 9.7 km/h 89 % 0 mm 0 W/m2
19:57 2 °C 0.4 °C 1022.6 hPa NNW 3.2 km/h 9.7 km/h 89 % 0 mm 0 W/m2
20:02 1.9 °C 0.3 °C 1022.9 hPa NNW 6.4 km/h 11.3 km/h 89 % 0 mm 0 W/m2
20:03 1.9 °C 0.3 °C 1022.9 hPa NNW 8 km/h 11.3 km/h 89 % 0 mm 0 W/m2
20:08 1.8 °C 0.2 °C 1022.9 hPa NNW 3.2 km/h 12.9 km/h 89 % 0 mm 0 W/m2
20:13 1.8 °C 0.2 °C 1022.9 hPa North 6.4 km/h 12.9 km/h 89 % 0 mm 0 W/m2
20:18 1.8 °C 0.2 °C 1022.9 hPa North 6.4 km/h 12.9 km/h 89 % 0 mm 0 W/m2
20:21 1.8 °C 0.3 °C 1022.9 hPa North 9.7 km/h 16.1 km/h 90 % 0 mm 0 W/m2
20:26 1.8 °C 0.2 °C 1023.2 hPa NNW 4.8 km/h 11.3 km/h 89 % 0 mm 0 W/m2
20:31 1.8 °C 0.2 °C 1023.2 hPa North 3.2 km/h 8 km/h 89 % 0 mm 0 W/m2
20:36 1.7 °C 0.1 °C 1023.2 hPa NNW 4.8 km/h 9.7 km/h 89 % 0 mm 0 W/m2
20:41 1.6 °C 0 °C 1023.6 hPa NNW 4.8 km/h 11.3 km/h 89 % 0 mm 0 W/m2
20:43 1.6 °C 0 °C 1023.6 hPa North 1.6 km/h 11.3 km/h 89 % 0 mm 0 W/m2
20:48 1.6 °C 0 °C 1023.6 hPa North 1.6 km/h 6.4 km/h 89 % 0 mm 0 W/m2
20:50 1.6 °C 0 °C 1023.6 hPa North 3.2 km/h 11.3 km/h 89 % 0 mm 0 W/m2
20:55 1.7 °C 0.2 °C 1023.9 hPa North 8 km/h 14.5 km/h 90 % 0 mm 0 W/m2
20:56 1.7 °C 0.2 °C 1023.9 hPa North 8 km/h 14.5 km/h 90 % 0 mm 0 W/m2
21:01 1.7 °C 0.1 °C 1023.9 hPa NNW 6.4 km/h 16.1 km/h 89 % 0 mm 0 W/m2
21:02 1.7 °C 0.1 °C 1023.9 hPa NNW 6.4 km/h 16.1 km/h 89 % 0 mm 0 W/m2
21:07 1.7 °C 0.1 °C 1023.9 hPa NNW 4.8 km/h 9.7 km/h 89 % 0 mm 0 W/m2
21:12 1.6 °C 0 °C 1023.9 hPa NNW 9.7 km/h 14.5 km/h 89 % 0 mm 0 W/m2
21:17 1.7 °C 0.1 °C 1024.3 hPa North 6.4 km/h 11.3 km/h 89 % 0 mm 0 W/m2
21:23 1.7 °C 0.1 °C 1024.3 hPa NNW 6.4 km/h 12.9 km/h 89 % 0 mm 0 W/m2
21:28 1.7 °C 0.1 °C 1024.3 hPa NNW 8 km/h 14.5 km/h 89 % 0 mm 0 W/m2
21:33 1.7 °C 0.1 °C 1024.3 hPa NNW 8 km/h 11.3 km/h 89 % 0 mm 0 W/m2
21:35 1.7 °C 0.1 °C 1024.3 hPa NNW 6.4 km/h 11.3 km/h 89 % 0 mm 0 W/m2
21:40 1.7 °C 0.1 °C 1024.6 hPa NNW 6.4 km/h 14.5 km/h 89 % 0 mm 0 W/m2
21:46 1.7 °C 0.2 °C 1024.6 hPa NNW 4.8 km/h 14.5 km/h 90 % 0 mm 0 W/m2
21:50 1.6 °C 0.1 °C 1024.6 hPa NNW 6.4 km/h 12.9 km/h 90 % 0 mm 0 W/m2
21:55 1.7 °C 0.2 °C 1024.6 hPa NNW 6.4 km/h 14.5 km/h 90 % 0 mm 0 W/m2
21:58 1.7 °C 0.2 °C 1024.6 hPa NNW 9.7 km/h 14.5 km/h 90 % 0 mm 0 W/m2
22:03 1.7 °C 0.2 °C 1024.9 hPa North 8 km/h 14.5 km/h 90 % 0 mm 0 W/m2
22:08 1.7 °C 0.2 °C 1024.9 hPa North 3.2 km/h 9.7 km/h 90 % 0 mm 0 W/m2
22:13 1.7 °C 0.2 °C 1024.9 hPa North 3.2 km/h 8 km/h 90 % 0 mm 0 W/m2
22:18 1.7 °C 0.2 °C 1024.9 hPa NNW 6.4 km/h 12.9 km/h 90 % 0 mm 0 W/m2
22:23 1.6 °C 0.1 °C 1025.3 hPa NNW 6.4 km/h 11.3 km/h 90 % 0 mm 0 W/m2
22:25 1.6 °C 0.1 °C 1025.3 hPa North 4.8 km/h 9.7 km/h 90 % 0 mm 0 W/m2
22:30 1.6 °C 0.1 °C 1025.3 hPa NNW 6.4 km/h 12.9 km/h 90 % 0 mm 0 W/m2
22:32 1.6 °C 0.3 °C 1025.3 hPa North 6.4 km/h 12.9 km/h 91 % 0 mm 0 W/m2
22:37 1.6 °C 0.3 °C 1025.3 hPa NNW 6.4 km/h 12.9 km/h 91 % 0 mm 0 W/m2
22:42 1.6 °C 0.3 °C 1025.3 hPa NNW 4.8 km/h 12.9 km/h 91 % 0 mm 0 W/m2
22:47 1.6 °C 0.3 °C 1025.6 hPa NNW 3.2 km/h 12.9 km/h 91 % 0 mm 0 W/m2
22:52 1.6 °C 0.3 °C 1025.6 hPa NNW 3.2 km/h 9.7 km/h 91 % 0 mm 0 W/m2
22:57 1.6 °C 0.3 °C 1025.6 hPa North 6.4 km/h 12.9 km/h 91 % 0 mm 0 W/m2
23:02 1.6 °C 0.3 °C 1025.6 hPa North 8 km/h 12.9 km/h 91 % 0 mm 0 W/m2
23:05 1.6 °C 0.3 °C 1025.6 hPa North 6.4 km/h 11.3 km/h 91 % 0 mm 0 W/m2
23:09 1.6 °C 0.3 °C 1025.6 hPa North 6.4 km/h 11.3 km/h 91 % 0 mm 0 W/m2
23:14 1.6 °C 0.3 °C 1026 hPa North 4.8 km/h 12.9 km/h 91 % 0 mm 0 W/m2
23:19 1.6 °C 0.3 °C 1026 hPa NNW 8 km/h 14.5 km/h 91 % 0 mm 0 W/m2
23:20 1.5 °C 0.2 °C 1026 hPa NNW 8 km/h 14.5 km/h 91 % 0 mm 0 W/m2
23:26 1.4 °C 0.1 °C 1026 hPa NNW 8 km/h 11.3 km/h 91 % 0 mm 0 W/m2
23:31 1.4 °C 0.1 °C 1026 hPa NNW 8 km/h 14.5 km/h 91 % 0 mm 0 W/m2
23:32 1.4 °C 0.1 °C 1026 hPa NNW 9.7 km/h 14.5 km/h 91 % 0 mm 0 W/m2
23:38 1.4 °C 0.1 °C 1026 hPa NNW 9.7 km/h 12.9 km/h 91 % 0 mm 0 W/m2
23:40 1.4 °C 0.1 °C 1026 hPa NNW 8 km/h 11.3 km/h 91 % 0 mm 0 W/m2
23:45 1.4 °C 0.1 °C 1026 hPa NNW 8 km/h 14.5 km/h 91 % 0 mm 0 W/m2
23:50 1.4 °C 0.1 °C 1026 hPa North 9.7 km/h 12.9 km/h 91 % 0 mm 0 W/m2
23:54 1.4 °C 0.1 °C 1026 hPa NNW 6.4 km/h 12.9 km/h 91 % 0 mm 0 W/m2
23:59 1.4 °C 0.1 °C 1026 hPa North 6.4 km/h 11.3 km/h 91 % 0 mm 0 W/m2
Delerius-Weather
Compliments of Weather Underground - 2.5 mb

Data updates at regular intervals.